sensor_id;sensor_type;location;lat;lon;timestamp;P1;durP1;ratioP1;P2;durP2;ratioP2
69325;SDS011;56471;53.508;49.252;2023-06-10T00:00:34;4.53;;;2.97;;
69325;SDS011;56471;53.508;49.252;2023-06-10T00:03:00;4.05;;;3.08;;
69325;SDS011;56471;53.508;49.252;2023-06-10T00:05:26;5.15;;;3.20;;
69325;SDS011;56471;53.508;49.252;2023-06-10T00:07:55;4.60;;;3.03;;
69325;SDS011;56471;53.508;49.252;2023-06-10T00:10:21;6.75;;;3.00;;
69325;SDS011;56471;53.508;49.252;2023-06-10T00:12:48;4.15;;;2.92;;
69325;SDS011;56471;53.508;49.252;2023-06-10T00:15:13;4.95;;;3.13;;
69325;SDS011;56471;53.508;49.252;2023-06-10T00:17:39;7.43;;;3.28;;
69325;SDS011;56471;53.508;49.252;2023-06-10T00:20:09;4.00;;;2.90;;
69325;SDS011;56471;53.508;49.252;2023-06-10T00:22:38;5.65;;;3.30;;
69325;SDS011;56471;53.508;49.252;2023-06-10T00:25:05;7.30;;;3.10;;
69325;SDS011;56471;53.508;49.252;2023-06-10T00:27:31;8.00;;;3.10;;
69325;SDS011;56471;53.508;49.252;2023-06-10T00:30:03;6.70;;;2.90;;
69325;SDS011;56471;53.508;49.252;2023-06-10T00:32:32;4.18;;;2.92;;
69325;SDS011;56471;53.508;49.252;2023-06-10T00:34:58;5.88;;;2.95;;
69325;SDS011;56471;53.508;49.252;2023-06-10T00:37:24;5.07;;;3.22;;
69325;SDS011;56471;53.508;49.252;2023-06-10T00:39:49;3.70;;;2.78;;
69325;SDS011;56471;53.508;49.252;2023-06-10T00:42:15;5.55;;;3.22;;
69325;SDS011;56471;53.508;49.252;2023-06-10T00:44:41;5.78;;;3.20;;
69325;SDS011;56471;53.508;49.252;2023-06-10T00:47:07;5.05;;;3.22;;
69325;SDS011;56471;53.508;49.252;2023-06-10T00:49:33;6.53;;;3.33;;
69325;SDS011;56471;53.508;49.252;2023-06-10T00:51:59;4.93;;;2.80;;
69325;SDS011;56471;53.508;49.252;2023-06-10T00:54:27;4.15;;;3.00;;
69325;SDS011;56471;53.508;49.252;2023-06-10T00:56:53;4.43;;;2.95;;
69325;SDS011;56471;53.508;49.252;2023-06-10T00:59:19;3.80;;;3.00;;
69325;SDS011;56471;53.508;49.252;2023-06-10T01:01:45;4.45;;;2.95;;
69325;SDS011;56471;53.508;49.252;2023-06-10T01:04:14;4.47;;;3.33;;
69325;SDS011;56471;53.508;49.252;2023-06-10T01:12:55;7.65;;;3.00;;
69325;SDS011;56471;53.508;49.252;2023-06-10T01:15:27;5.28;;;2.97;;
69325;SDS011;56471;53.508;49.252;2023-06-10T01:20:25;4.13;;;3.10;;
69325;SDS011;56471;53.508;49.252;2023-06-10T01:22:53;4.95;;;3.00;;
69325;SDS011;56471;53.508;49.252;2023-06-10T01:25:20;6.68;;;2.88;;
69325;SDS011;56471;53.508;49.252;2023-06-10T01:28:02;6.30;;;3.30;;
69325;SDS011;56471;53.508;49.252;2023-06-10T01:30:42;4.97;;;3.10;;
69325;SDS011;56471;53.508;49.252;2023-06-10T01:33:17;5.82;;;2.75;;
69325;SDS011;56471;53.508;49.252;2023-06-10T01:35:47;5.50;;;2.92;;
69325;SDS011;56471;53.508;49.252;2023-06-10T01:38:15;7.75;;;3.30;;
69325;SDS011;56471;53.508;49.252;2023-06-10T01:40:41;5.82;;;3.10;;
69325;SDS011;56471;53.508;49.252;2023-06-10T01:43:07;5.07;;;3.17;;
69325;SDS011;56471;53.508;49.252;2023-06-10T01:45:33;7.70;;;2.88;;
69325;SDS011;56471;53.508;49.252;2023-06-10T01:47:59;7.63;;;3.50;;
69325;SDS011;56471;53.508;49.252;2023-06-10T01:50:25;4.03;;;3.10;;
69325;SDS011;56471;53.508;49.252;2023-06-10T01:52:50;7.65;;;3.20;;
69325;SDS011;56471;53.508;49.252;2023-06-10T01:55:16;5.18;;;3.15;;
69325;SDS011;56471;53.508;49.252;2023-06-10T01:57:42;3.85;;;2.90;;
69325;SDS011;56471;53.508;49.252;2023-06-10T02:00:07;5.15;;;3.25;;
69325;SDS011;56471;53.508;49.252;2023-06-10T02:02:34;9.07;;;3.40;;
69325;SDS011;56471;53.508;49.252;2023-06-10T02:04:59;4.07;;;2.88;;
69325;SDS011;56471;53.508;49.252;2023-06-10T02:07:25;5.95;;;3.30;;
69325;SDS011;56471;53.508;49.252;2023-06-10T02:09:51;5.60;;;3.22;;
69325;SDS011;56471;53.508;49.252;2023-06-10T02:12:16;4.95;;;2.92;;
69325;SDS011;56471;53.508;49.252;2023-06-10T02:14:42;5.32;;;2.90;;
69325;SDS011;56471;53.508;49.252;2023-06-10T02:17:07;4.22;;;3.08;;
69325;SDS011;56471;53.508;49.252;2023-06-10T02:19:38;5.57;;;3.25;;
69325;SDS011;56471;53.508;49.252;2023-06-10T02:22:07;5.78;;;3.20;;
69325;SDS011;56471;53.508;49.252;2023-06-10T02:24:35;3.88;;;2.67;;
69325;SDS011;56471;53.508;49.252;2023-06-10T02:27:03;4.57;;;2.80;;
69325;SDS011;56471;53.508;49.252;2023-06-10T02:29:34;5.03;;;3.10;;
69325;SDS011;56471;53.508;49.252;2023-06-10T02:32:01;6.07;;;3.17;;
69325;SDS011;56471;53.508;49.252;2023-06-10T02:34:27;5.28;;;2.60;;
69325;SDS011;56471;53.508;49.252;2023-06-10T02:36:54;5.82;;;3.22;;
69325;SDS011;56471;53.508;49.252;2023-06-10T02:39:23;8.35;;;3.25;;
69325;SDS011;56471;53.508;49.252;2023-06-10T02:41:48;4.78;;;3.33;;
69325;SDS011;56471;53.508;49.252;2023-06-10T02:44:14;4.07;;;2.88;;
69325;SDS011;56471;53.508;49.252;2023-06-10T02:46:40;4.18;;;3.20;;
69325;SDS011;56471;53.508;49.252;2023-06-10T02:49:05;6.85;;;3.35;;
69325;SDS011;56471;53.508;49.252;2023-06-10T02:51:31;3.85;;;3.00;;
69325;SDS011;56471;53.508;49.252;2023-06-10T02:53:57;4.88;;;3.03;;
69325;SDS011;56471;53.508;49.252;2023-06-10T02:56:22;7.57;;;3.03;;
69325;SDS011;56471;53.508;49.252;2023-06-10T02:58:48;5.00;;;3.15;;
69325;SDS011;56471;53.508;49.252;2023-06-10T03:01:14;5.40;;;3.30;;
69325;SDS011;56471;53.508;49.252;2023-06-10T03:03:40;5.10;;;2.78;;
69325;SDS011;56471;53.508;49.252;2023-06-10T03:06:08;4.38;;;3.50;;
69325;SDS011;56471;53.508;49.252;2023-06-10T03:08:37;4.05;;;3.05;;
69325;SDS011;56471;53.508;49.252;2023-06-10T03:11:03;7.47;;;3.25;;
69325;SDS011;56471;53.508;49.252;2023-06-10T03:13:29;4.93;;;3.40;;
69325;SDS011;56471;53.508;49.252;2023-06-10T03:15:55;6.95;;;3.38;;
69325;SDS011;56471;53.508;49.252;2023-06-10T03:18:20;5.40;;;3.30;;
69325;SDS011;56471;53.508;49.252;2023-06-10T03:20:48;6.20;;;3.45;;
69325;SDS011;56471;53.508;49.252;2023-06-10T03:23:13;5.32;;;3.10;;
69325;SDS011;56471;53.508;49.252;2023-06-10T03:25:40;4.93;;;3.25;;
69325;SDS011;56471;53.508;49.252;2023-06-10T03:28:06;5.13;;;3.60;;
69325;SDS011;56471;53.508;49.252;2023-06-10T03:30:32;4.50;;;3.28;;
69325;SDS011;56471;53.508;49.252;2023-06-10T03:32:57;5.75;;;3.28;;
69325;SDS011;56471;53.508;49.252;2023-06-10T03:35:23;5.93;;;3.60;;
69325;SDS011;56471;53.508;49.252;2023-06-10T03:37:48;5.30;;;3.20;;
69325;SDS011;56471;53.508;49.252;2023-06-10T03:40:14;8.73;;;3.50;;
69325;SDS011;56471;53.508;49.252;2023-06-10T03:42:40;5.15;;;3.42;;
69325;SDS011;56471;53.508;49.252;2023-06-10T03:45:06;5.25;;;3.42;;
69325;SDS011;56471;53.508;49.252;2023-06-10T03:47:35;6.03;;;3.50;;
69325;SDS011;56471;53.508;49.252;2023-06-10T03:50:02;3.80;;;3.40;;
69325;SDS011;56471;53.508;49.252;2023-06-10T03:52:30;6.40;;;3.83;;
69325;SDS011;56471;53.508;49.252;2023-06-10T03:54:55;5.43;;;3.58;;
69325;SDS011;56471;53.508;49.252;2023-06-10T03:57:21;10.70;;;3.83;;
69325;SDS011;56471;53.508;49.252;2023-06-10T03:59:47;5.20;;;3.70;;
69325;SDS011;56471;53.508;49.252;2023-06-10T04:02:12;4.53;;;3.50;;
69325;SDS011;56471;53.508;49.252;2023-06-10T04:04:38;6.28;;;3.78;;
69325;SDS011;56471;53.508;49.252;2023-06-10T04:07:04;6.38;;;3.65;;
69325;SDS011;56471;53.508;49.252;2023-06-10T04:09:30;7.25;;;3.78;;
69325;SDS011;56471;53.508;49.252;2023-06-10T04:11:56;6.70;;;3.95;;
69325;SDS011;56471;53.508;49.252;2023-06-10T04:14:22;5.03;;;3.67;;
69325;SDS011;56471;53.508;49.252;2023-06-10T04:16:48;7.22;;;3.50;;
69325;SDS011;56471;53.508;49.252;2023-06-10T04:19:15;6.78;;;4.20;;
69325;SDS011;56471;53.508;49.252;2023-06-10T04:21:41;6.63;;;3.85;;
69325;SDS011;56471;53.508;49.252;2023-06-10T04:24:07;7.03;;;4.00;;
69325;SDS011;56471;53.508;49.252;2023-06-10T04:26:34;8.13;;;3.80;;
69325;SDS011;56471;53.508;49.252;2023-06-10T04:29:01;5.63;;;3.80;;
69325;SDS011;56471;53.508;49.252;2023-06-10T04:31:26;7.75;;;3.92;;
69325;SDS011;56471;53.508;49.252;2023-06-10T04:33:52;8.15;;;3.90;;
69325;SDS011;56471;53.508;49.252;2023-06-10T04:36:18;8.13;;;3.72;;
69325;SDS011;56471;53.508;49.252;2023-06-10T04:38:44;6.20;;;3.67;;
69325;SDS011;56471;53.508;49.252;2023-06-10T04:41:10;9.20;;;3.97;;
69325;SDS011;56471;53.508;49.252;2023-06-10T04:43:36;5.07;;;3.90;;
69325;SDS011;56471;53.508;49.252;2023-06-10T04:46:03;5.38;;;3.70;;
69325;SDS011;56471;53.508;49.252;2023-06-10T04:48:29;7.05;;;3.85;;
69325;SDS011;56471;53.508;49.252;2023-06-10T04:50:55;5.63;;;3.80;;
69325;SDS011;56471;53.508;49.252;2023-06-10T04:53:21;5.35;;;3.65;;
69325;SDS011;56471;53.508;49.252;2023-06-10T04:55:47;5.53;;;4.13;;
69325;SDS011;56471;53.508;49.252;2023-06-10T04:58:13;5.63;;;3.70;;
69325;SDS011;56471;53.508;49.252;2023-06-10T05:00:39;5.40;;;4.25;;
69325;SDS011;56471;53.508;49.252;2023-06-10T05:03:05;5.45;;;4.00;;
69325;SDS011;56471;53.508;49.252;2023-06-10T05:05:31;6.43;;;4.00;;
69325;SDS011;56471;53.508;49.252;2023-06-10T05:07:56;9.18;;;4.25;;
69325;SDS011;56471;53.508;49.252;2023-06-10T05:10:22;5.95;;;4.13;;
69325;SDS011;56471;53.508;49.252;2023-06-10T05:12:48;6.20;;;3.90;;
69325;SDS011;56471;53.508;49.252;2023-06-10T05:15:13;8.05;;;4.32;;
69325;SDS011;56471;53.508;49.252;2023-06-10T05:17:39;8.05;;;4.28;;
69325;SDS011;56471;53.508;49.252;2023-06-10T05:20:05;5.47;;;4.25;;
69325;SDS011;56471;53.508;49.252;2023-06-10T05:22:31;6.47;;;4.30;;
69325;SDS011;56471;53.508;49.252;2023-06-10T05:24:57;5.00;;;4.07;;
69325;SDS011;56471;53.508;49.252;2023-06-10T05:27:23;6.32;;;4.07;;
69325;SDS011;56471;53.508;49.252;2023-06-10T05:29:49;5.35;;;4.15;;
69325;SDS011;56471;53.508;49.252;2023-06-10T05:32:16;8.98;;;4.30;;
69325;SDS011;56471;53.508;49.252;2023-06-10T05:34:42;6.38;;;4.80;;
69325;SDS011;56471;53.508;49.252;2023-06-10T05:37:08;6.45;;;4.60;;
69325;SDS011;56471;53.508;49.252;2023-06-10T05:39:35;4.82;;;4.32;;
69325;SDS011;56471;53.508;49.252;2023-06-10T05:42:03;7.95;;;4.82;;
69325;SDS011;56471;53.508;49.252;2023-06-10T05:44:31;6.18;;;4.00;;
69325;SDS011;56471;53.508;49.252;2023-06-10T05:46:57;7.68;;;4.20;;
69325;SDS011;56471;53.508;49.252;2023-06-10T05:49:22;6.43;;;4.10;;
69325;SDS011;56471;53.508;49.252;2023-06-10T05:51:48;6.10;;;4.32;;
69325;SDS011;56471;53.508;49.252;2023-06-10T05:54:14;6.20;;;4.00;;
69325;SDS011;56471;53.508;49.252;2023-06-10T05:56:39;6.13;;;4.13;;
69325;SDS011;56471;53.508;49.252;2023-06-10T05:59:05;5.72;;;4.05;;
69325;SDS011;56471;53.508;49.252;2023-06-10T06:01:31;6.07;;;4.20;;
69325;SDS011;56471;53.508;49.252;2023-06-10T06:03:56;5.60;;;4.40;;
69325;SDS011;56471;53.508;49.252;2023-06-10T06:06:22;8.07;;;4.70;;
69325;SDS011;56471;53.508;49.252;2023-06-10T06:08:48;7.20;;;4.20;;
69325;SDS011;56471;53.508;49.252;2023-06-10T06:11:14;6.05;;;4.20;;
69325;SDS011;56471;53.508;49.252;2023-06-10T06:13:40;7.10;;;4.25;;
69325;SDS011;56471;53.508;49.252;2023-06-10T06:16:07;8.27;;;4.18;;
69325;SDS011;56471;53.508;49.252;2023-06-10T06:18:33;6.40;;;4.35;;
69325;SDS011;56471;53.508;49.252;2023-06-10T06:20:59;4.65;;;4.13;;
69325;SDS011;56471;53.508;49.252;2023-06-10T06:23:25;7.47;;;4.40;;
69325;SDS011;56471;53.508;49.252;2023-06-10T06:25:50;5.15;;;4.18;;
69325;SDS011;56471;53.508;49.252;2023-06-10T06:28:16;10.30;;;4.45;;
69325;SDS011;56471;53.508;49.252;2023-06-10T06:30:44;5.18;;;4.50;;
69325;SDS011;56471;53.508;49.252;2023-06-10T06:33:10;8.70;;;4.78;;
69325;SDS011;56471;53.508;49.252;2023-06-10T06:35:35;9.10;;;4.22;;
69325;SDS011;56471;53.508;49.252;2023-06-10T06:38:03;5.22;;;4.28;;
69325;SDS011;56471;53.508;49.252;2023-06-10T06:40:29;6.05;;;4.35;;
69325;SDS011;56471;53.508;49.252;2023-06-10T06:42:55;5.78;;;4.55;;
69325;SDS011;56471;53.508;49.252;2023-06-10T06:45:21;4.95;;;4.45;;
69325;SDS011;56471;53.508;49.252;2023-06-10T06:47:46;5.93;;;4.38;;
69325;SDS011;56471;53.508;49.252;2023-06-10T06:50:12;9.27;;;4.43;;
69325;SDS011;56471;53.508;49.252;2023-06-10T06:52:40;7.00;;;4.22;;
69325;SDS011;56471;53.508;49.252;2023-06-10T06:55:06;5.88;;;4.30;;
69325;SDS011;56471;53.508;49.252;2023-06-10T06:57:32;8.50;;;4.07;;
69325;SDS011;56471;53.508;49.252;2023-06-10T06:59:57;6.45;;;4.38;;
69325;SDS011;56471;53.508;49.252;2023-06-10T07:02:25;8.00;;;4.35;;
69325;SDS011;56471;53.508;49.252;2023-06-10T07:04:51;6.15;;;4.30;;
69325;SDS011;56471;53.508;49.252;2023-06-10T07:07:20;5.07;;;4.18;;
69325;SDS011;56471;53.508;49.252;2023-06-10T07:09:46;6.30;;;4.45;;
69325;SDS011;56471;53.508;49.252;2023-06-10T07:12:11;7.05;;;4.50;;
69325;SDS011;56471;53.508;49.252;2023-06-10T07:14:37;5.93;;;4.03;;
69325;SDS011;56471;53.508;49.252;2023-06-10T07:17:03;8.95;;;4.03;;
69325;SDS011;56471;53.508;49.252;2023-06-10T07:19:28;4.75;;;3.83;;
69325;SDS011;56471;53.508;49.252;2023-06-10T07:21:54;4.57;;;4.00;;
69325;SDS011;56471;53.508;49.252;2023-06-10T07:24:20;6.60;;;4.18;;
69325;SDS011;56471;53.508;49.252;2023-06-10T07:26:46;5.78;;;3.95;;
69325;SDS011;56471;53.508;49.252;2023-06-10T07:29:11;6.03;;;3.90;;
69325;SDS011;56471;53.508;49.252;2023-06-10T07:31:37;6.82;;;3.80;;
69325;SDS011;56471;53.508;49.252;2023-06-10T07:34:05;4.90;;;3.67;;
69325;SDS011;56471;53.508;49.252;2023-06-10T07:36:31;6.72;;;3.67;;
69325;SDS011;56471;53.508;49.252;2023-06-10T07:38:57;8.75;;;3.80;;
69325;SDS011;56471;53.508;49.252;2023-06-10T07:41:23;5.75;;;3.90;;
69325;SDS011;56471;53.508;49.252;2023-06-10T07:43:54;4.82;;;3.70;;
69325;SDS011;56471;53.508;49.252;2023-06-10T07:46:21;6.68;;;3.65;;
69325;SDS011;56471;53.508;49.252;2023-06-10T07:48:47;4.88;;;3.25;;
69325;SDS011;56471;53.508;49.252;2023-06-10T07:51:14;6.25;;;3.60;;
69325;SDS011;56471;53.508;49.252;2023-06-10T07:53:40;4.25;;;3.70;;
69325;SDS011;56471;53.508;49.252;2023-06-10T07:56:06;5.35;;;4.00;;
69325;SDS011;56471;53.508;49.252;2023-06-10T07:58:32;6.15;;;3.72;;
69325;SDS011;56471;53.508;49.252;2023-06-10T08:00:57;7.57;;;3.90;;
69325;SDS011;56471;53.508;49.252;2023-06-10T08:03:23;7.90;;;3.80;;
69325;SDS011;56471;53.508;49.252;2023-06-10T08:05:49;4.88;;;3.70;;
69325;SDS011;56471;53.508;49.252;2023-06-10T08:08:14;5.50;;;3.78;;
69325;SDS011;56471;53.508;49.252;2023-06-10T08:10:40;7.22;;;3.75;;
69325;SDS011;56471;53.508;49.252;2023-06-10T08:13:07;4.47;;;3.70;;
69325;SDS011;56471;53.508;49.252;2023-06-10T08:15:33;8.57;;;3.95;;
69325;SDS011;56471;53.508;49.252;2023-06-10T08:17:59;5.90;;;4.07;;
69325;SDS011;56471;53.508;49.252;2023-06-10T08:20:25;5.35;;;4.13;;
69325;SDS011;56471;53.508;49.252;2023-06-10T08:22:50;5.53;;;4.20;;
69325;SDS011;56471;53.508;49.252;2023-06-10T08:25:16;6.95;;;4.15;;
69325;SDS011;56471;53.508;49.252;2023-06-10T08:27:42;5.55;;;3.88;;
69325;SDS011;56471;53.508;49.252;2023-06-10T08:30:08;6.13;;;4.20;;
69325;SDS011;56471;53.508;49.252;2023-06-10T08:32:35;6.63;;;4.00;;
69325;SDS011;56471;53.508;49.252;2023-06-10T08:35:01;6.18;;;3.90;;
69325;SDS011;56471;53.508;49.252;2023-06-10T08:37:28;5.88;;;4.13;;
69325;SDS011;56471;53.508;49.252;2023-06-10T08:39:54;5.95;;;4.65;;
69325;SDS011;56471;53.508;49.252;2023-06-10T08:42:24;4.90;;;4.40;;
69325;SDS011;56471;53.508;49.252;2023-06-10T08:44:54;5.38;;;4.00;;
69325;SDS011;56471;53.508;49.252;2023-06-10T08:47:22;5.13;;;4.00;;
69325;SDS011;56471;53.508;49.252;2023-06-10T08:49:49;6.47;;;4.38;;
69325;SDS011;56471;53.508;49.252;2023-06-10T08:52:19;6.32;;;4.10;;
69325;SDS011;56471;53.508;49.252;2023-06-10T08:54:56;6.28;;;4.28;;
69325;SDS011;56471;53.508;49.252;2023-06-10T08:57:25;7.18;;;4.18;;
69325;SDS011;56471;53.508;49.252;2023-06-10T08:59:52;7.10;;;4.30;;
69325;SDS011;56471;53.508;49.252;2023-06-10T09:02:19;6.68;;;4.30;;
69325;SDS011;56471;53.508;49.252;2023-06-10T09:04:46;7.18;;;4.25;;
69325;SDS011;56471;53.508;49.252;2023-06-10T09:07:13;10.50;;;4.45;;
69325;SDS011;56471;53.508;49.252;2023-06-10T09:09:40;7.82;;;4.45;;
69325;SDS011;56471;53.508;49.252;2023-06-10T09:12:07;6.38;;;4.78;;
69325;SDS011;56471;53.508;49.252;2023-06-10T09:14:33;7.22;;;4.60;;
69325;SDS011;56471;53.508;49.252;2023-06-10T09:16:59;5.50;;;4.50;;
69325;SDS011;56471;53.508;49.252;2023-06-10T09:19:25;5.55;;;4.63;;
69325;SDS011;56471;53.508;49.252;2023-06-10T09:21:51;6.28;;;4.28;;
69325;SDS011;56471;53.508;49.252;2023-06-10T09:24:17;8.75;;;4.57;;
69325;SDS011;56471;53.508;49.252;2023-06-10T09:26:43;5.55;;;4.15;;
69325;SDS011;56471;53.508;49.252;2023-06-10T09:29:10;6.60;;;4.25;;
69325;SDS011;56471;53.508;49.252;2023-06-10T09:31:37;6.30;;;4.18;;
69325;SDS011;56471;53.508;49.252;2023-06-10T09:34:05;8.63;;;3.90;;
69325;SDS011;56471;53.508;49.252;2023-06-10T09:36:32;3.83;;;3.20;;
69325;SDS011;56471;53.508;49.252;2023-06-10T09:38:58;4.75;;;2.92;;
69325;SDS011;56471;53.508;49.252;2023-06-10T09:41:39;3.97;;;3.20;;
69325;SDS011;56471;53.508;49.252;2023-06-10T09:44:12;4.75;;;2.33;;
69325;SDS011;56471;53.508;49.252;2023-06-10T09:46:39;3.10;;;2.70;;
69325;SDS011;56471;53.508;49.252;2023-06-10T09:49:05;3.50;;;2.35;;
69325;SDS011;56471;53.508;49.252;2023-06-10T09:51:31;7.70;;;2.90;;
69325;SDS011;56471;53.508;49.252;2023-06-10T09:53:57;5.03;;;2.60;;
69325;SDS011;56471;53.508;49.252;2023-06-10T09:56:34;5.30;;;3.15;;
69325;SDS011;56471;53.508;49.252;2023-06-10T09:59:01;5.05;;;3.50;;
69325;SDS011;56471;53.508;49.252;2023-06-10T10:01:27;7.00;;;3.88;;
69325;SDS011;56471;53.508;49.252;2023-06-10T10:03:53;8.25;;;4.40;;
69325;SDS011;56471;53.508;49.252;2023-06-10T10:06:19;6.80;;;4.07;;
69325;SDS011;56471;53.508;49.252;2023-06-10T10:08:47;5.20;;;3.42;;
69325;SDS011;56471;53.508;49.252;2023-06-10T10:11:14;7.95;;;4.13;;
69325;SDS011;56471;53.508;49.252;2023-06-10T10:13:42;7.50;;;3.38;;
69325;SDS011;56471;53.508;49.252;2023-06-10T10:16:36;6.63;;;3.65;;
69325;SDS011;56471;53.508;49.252;2023-06-10T10:19:07;3.13;;;2.80;;
69325;SDS011;56471;53.508;49.252;2023-06-10T10:21:43;4.60;;;3.60;;
69325;SDS011;56471;53.508;49.252;2023-06-10T10:24:20;5.63;;;4.10;;
69325;SDS011;56471;53.508;49.252;2023-06-10T10:26:48;9.13;;;4.05;;
69325;SDS011;56471;53.508;49.252;2023-06-10T10:29:31;5.60;;;4.50;;
69325;SDS011;56471;53.508;49.252;2023-06-10T10:32:03;7.45;;;4.75;;
69325;SDS011;56471;53.508;49.252;2023-06-10T10:34:56;7.28;;;4.85;;
69325;SDS011;56471;53.508;49.252;2023-06-10T10:37:30;14.07;;;4.13;;
69325;SDS011;56471;53.508;49.252;2023-06-10T10:39:56;10.45;;;3.70;;
69325;SDS011;56471;53.508;49.252;2023-06-10T10:42:23;10.40;;;3.70;;
69325;SDS011;56471;53.508;49.252;2023-06-10T10:44:49;11.25;;;3.67;;
69325;SDS011;56471;53.508;49.252;2023-06-10T10:47:16;6.00;;;3.15;;
69325;SDS011;56471;53.508;49.252;2023-06-10T10:49:47;6.25;;;3.13;;
69325;SDS011;56471;53.508;49.252;2023-06-10T10:52:17;5.20;;;2.97;;
69325;SDS011;56471;53.508;49.252;2023-06-10T10:54:43;4.32;;;2.53;;
69325;SDS011;56471;53.508;49.252;2023-06-10T10:59:57;5.30;;;2.88;;
69325;SDS011;56471;53.508;49.252;2023-06-10T11:04:59;4.05;;;2.50;;
69325;SDS011;56471;53.508;49.252;2023-06-10T11:07:25;4.00;;;2.47;;
69325;SDS011;56471;53.508;49.252;2023-06-10T11:12:25;4.40;;;3.08;;
69325;SDS011;56471;53.508;49.252;2023-06-10T11:14:54;3.15;;;2.35;;
69325;SDS011;56471;53.508;49.252;2023-06-10T11:17:21;4.72;;;2.67;;
69325;SDS011;56471;53.508;49.252;2023-06-10T11:19:47;3.17;;;2.40;;
69325;SDS011;56471;53.508;49.252;2023-06-10T11:22:21;2.97;;;2.40;;
69325;SDS011;56471;53.508;49.252;2023-06-10T11:24:47;3.10;;;2.47;;
69325;SDS011;56471;53.508;49.252;2023-06-10T11:27:23;3.45;;;2.60;;
69325;SDS011;56471;53.508;49.252;2023-06-10T11:29:57;4.30;;;2.60;;
69325;SDS011;56471;53.508;49.252;2023-06-10T11:32:24;3.92;;;2.70;;
69325;SDS011;56471;53.508;49.252;2023-06-10T11:34:55;3.35;;;2.60;;
69325;SDS011;56471;53.508;49.252;2023-06-10T11:37:21;2.88;;;2.53;;
69325;SDS011;56471;53.508;49.252;2023-06-10T11:39:47;4.80;;;2.45;;
69325;SDS011;56471;53.508;49.252;2023-06-10T11:42:16;5.20;;;2.50;;
69325;SDS011;56471;53.508;49.252;2023-06-10T11:44:49;2.85;;;2.50;;
69325;SDS011;56471;53.508;49.252;2023-06-10T11:47:16;3.75;;;2.50;;
69325;SDS011;56471;53.508;49.252;2023-06-10T11:49:42;5.30;;;2.60;;
69325;SDS011;56471;53.508;49.252;2023-06-10T11:52:08;2.50;;;2.22;;
69325;SDS011;56471;53.508;49.252;2023-06-10T11:54:34;2.67;;;2.45;;
69325;SDS011;56471;53.508;49.252;2023-06-10T11:57:00;2.70;;;2.50;;
69325;SDS011;56471;53.508;49.252;2023-06-10T11:59:27;3.88;;;2.65;;
69325;SDS011;56471;53.508;49.252;2023-06-10T12:01:53;3.15;;;2.50;;
69325;SDS011;56471;53.508;49.252;2023-06-10T12:04:19;3.92;;;2.60;;
69325;SDS011;56471;53.508;49.252;2023-06-10T12:06:45;3.85;;;2.60;;
69325;SDS011;56471;53.508;49.252;2023-06-10T12:09:22;2.95;;;2.60;;
69325;SDS011;56471;53.508;49.252;2023-06-10T12:11:51;2.75;;;2.50;;
69325;SDS011;56471;53.508;49.252;2023-06-10T12:19:59;4.72;;;2.80;;
69325;SDS011;56471;53.508;49.252;2023-06-10T12:22:26;4.95;;;2.70;;
69325;SDS011;56471;53.508;49.252;2023-06-10T12:24:59;2.90;;;2.60;;
69325;SDS011;56471;53.508;49.252;2023-06-10T12:27:28;2.60;;;2.40;;
69325;SDS011;56471;53.508;49.252;2023-06-10T12:29:58;5.22;;;2.60;;
69325;SDS011;56471;53.508;49.252;2023-06-10T12:32:44;2.67;;;2.40;;
69325;SDS011;56471;53.508;49.252;2023-06-10T12:35:11;4.22;;;2.45;;
69325;SDS011;56471;53.508;49.252;2023-06-10T12:37:39;2.60;;;2.40;;
69325;SDS011;56471;53.508;49.252;2023-06-10T12:40:05;6.20;;;2.63;;
69325;SDS011;56471;53.508;49.252;2023-06-10T12:42:33;4.38;;;2.58;;
69325;SDS011;56471;53.508;49.252;2023-06-10T12:45:01;3.08;;;2.58;;
69325;SDS011;56471;53.508;49.252;2023-06-10T12:47:31;4.63;;;2.63;;
69325;SDS011;56471;53.508;49.252;2023-06-10T12:50:00;5.50;;;2.67;;
69325;SDS011;56471;53.508;49.252;2023-06-10T12:52:26;5.00;;;2.70;;
69325;SDS011;56471;53.508;49.252;2023-06-10T12:54:55;4.75;;;2.75;;
69325;SDS011;56471;53.508;49.252;2023-06-10T12:57:22;4.38;;;2.50;;
69325;SDS011;56471;53.508;49.252;2023-06-10T12:59:48;4.22;;;2.30;;
69325;SDS011;56471;53.508;49.252;2023-06-10T13:02:25;2.92;;;2.60;;
69325;SDS011;56471;53.508;49.252;2023-06-10T13:04:51;4.28;;;2.60;;
69325;SDS011;56471;53.508;49.252;2023-06-10T13:07:17;3.22;;;2.60;;
69325;SDS011;56471;53.508;49.252;2023-06-10T13:09:43;3.22;;;2.47;;
69325;SDS011;56471;53.508;49.252;2023-06-10T13:12:09;3.00;;;2.40;;
69325;SDS011;56471;53.508;49.252;2023-06-10T13:14:35;2.85;;;2.38;;
69325;SDS011;56471;53.508;49.252;2023-06-10T13:17:03;2.88;;;2.50;;
69325;SDS011;56471;53.508;49.252;2023-06-10T13:19:31;2.97;;;2.55;;
69325;SDS011;56471;53.508;49.252;2023-06-10T13:22:00;3.63;;;2.05;;
69325;SDS011;56471;53.508;49.252;2023-06-10T13:24:26;2.92;;;2.22;;
69325;SDS011;56471;53.508;49.252;2023-06-10T13:26:52;3.38;;;2.10;;
69325;SDS011;56471;53.508;49.252;2023-06-10T13:29:17;3.05;;;2.15;;
69325;SDS011;56471;53.508;49.252;2023-06-10T13:31:43;2.38;;;2.08;;
69325;SDS011;56471;53.508;49.252;2023-06-10T13:34:09;1.90;;;1.80;;
69325;SDS011;56471;53.508;49.252;2023-06-10T13:36:35;2.38;;;2.17;;
69325;SDS011;56471;53.508;49.252;2023-06-10T13:39:01;2.38;;;2.10;;
69325;SDS011;56471;53.508;49.252;2023-06-10T13:41:27;3.25;;;2.03;;
69325;SDS011;56471;53.508;49.252;2023-06-10T13:43:55;2.35;;;1.98;;
69325;SDS011;56471;53.508;49.252;2023-06-10T13:46:21;2.17;;;1.75;;
69325;SDS011;56471;53.508;49.252;2023-06-10T13:48:47;2.40;;;2.08;;
69325;SDS011;56471;53.508;49.252;2023-06-10T13:51:13;3.50;;;2.08;;
69325;SDS011;56471;53.508;49.252;2023-06-10T13:53:38;2.38;;;1.92;;
69325;SDS011;56471;53.508;49.252;2023-06-10T13:56:04;2.30;;;2.10;;
69325;SDS011;56471;53.508;49.252;2023-06-10T13:58:30;2.38;;;2.00;;
69325;SDS011;56471;53.508;49.252;2023-06-10T14:00:56;2.03;;;1.83;;
69325;SDS011;56471;53.508;49.252;2023-06-10T14:03:23;2.20;;;2.00;;
69325;SDS011;56471;53.508;49.252;2023-06-10T14:05:49;2.28;;;1.88;;
69325;SDS011;56471;53.508;49.252;2023-06-10T14:08:15;6.13;;;2.28;;
69325;SDS011;56471;53.508;49.252;2023-06-10T14:10:40;2.58;;;2.33;;
69325;SDS011;56471;53.508;49.252;2023-06-10T14:13:06;3.10;;;2.30;;
69325;SDS011;56471;53.508;49.252;2023-06-10T14:15:32;3.70;;;2.30;;
69325;SDS011;56471;53.508;49.252;2023-06-10T14:17:57;3.40;;;2.40;;
69325;SDS011;56471;53.508;49.252;2023-06-10T14:20:23;2.45;;;2.25;;
69325;SDS011;56471;53.508;49.252;2023-06-10T14:22:50;2.50;;;2.30;;
69325;SDS011;56471;53.508;49.252;2023-06-10T14:25:16;2.38;;;2.15;;
69325;SDS011;56471;53.508;49.252;2023-06-10T14:27:42;2.90;;;2.35;;
69325;SDS011;56471;53.508;49.252;2023-06-10T14:30:08;2.60;;;2.25;;
69325;SDS011;56471;53.508;49.252;2023-06-10T14:32:34;4.13;;;2.40;;
69325;SDS011;56471;53.508;49.252;2023-06-10T14:35:00;10.88;;;2.70;;
69325;SDS011;56471;53.508;49.252;2023-06-10T14:37:25;440.67;;;309.70;;
69325;SDS011;56471;53.508;49.252;2023-06-10T14:39:51;419.40;;;294.23;;
69325;SDS011;56471;53.508;49.252;2023-06-10T14:42:16;388.05;;;263.80;;
69325;SDS011;56471;53.508;49.252;2023-06-10T14:44:42;330.05;;;221.98;;
69325;SDS011;56471;53.508;49.252;2023-06-10T14:47:08;322.80;;;210.02;;
69325;SDS011;56471;53.508;49.252;2023-06-10T14:49:33;279.35;;;176.77;;
69325;SDS011;56471;53.508;49.252;2023-06-10T14:51:59;206.20;;;128.90;;
69325;SDS011;56471;53.508;49.252;2023-06-10T14:54:24;201.90;;;118.88;;